Time;durP1;ratioP1;P1;durP2;ratioP2;P2;SDS_P1;SDS_P2;PMS_P1;PMS_P2;Temp;Humidity;BMP_temperature;BMP_pressure;BME280_temperature;BME280_humidity;BME280_pressure;Samples;Min_cycle;Max_cycle;Signal;HPM_P1;HPM_P2
2021/11/06 00:00:07;;;;;;;0.77;0.77;;;6.60;99.90;;;;;;5095346;28;20074;-67
2021/11/06 00:02:52;;;;;;;2.47;0.93;;;6.60;99.90;;;;;;5095509;28;20392;-66
2021/11/06 00:05:37;;;;;;;2.75;2.38;;;6.60;99.90;;;;;;5094120;28;20443;-66
2021/11/06 00:08:21;;;;;;;1.60;1.50;;;6.60;99.90;;;;;;5094079;28;20503;-67
2021/11/06 00:11:06;;;;;;;0.63;0.63;;;6.70;99.90;;;;;;5094976;28;20043;-66
2021/11/06 00:13:50;;;;;;;1.55;1.15;;;6.60;99.90;;;;;;5094058;28;20081;-66
2021/11/06 00:16:35;;;;;;;0.40;0.40;;;6.50;99.90;;;;;;5095017;28;20039;-66
2021/11/06 00:19:19;;;;;;;0.68;0.68;;;6.50;99.90;;;;;;5094880;28;20036;-66
2021/11/06 00:22:05;;;;;;;0.45;0.45;;;6.50;99.90;;;;;;5094829;28;20090;-67
2021/11/06 00:24:49;;;;;;;0.88;0.88;;;6.50;99.90;;;;;;5093950;28;20047;-67
2021/11/06 00:27:34;;;;;;;1.27;1.17;;;6.50;99.90;;;;;;5094361;28;20131;-67
2021/11/06 00:30:19;;;;;;;0.63;0.63;;;6.50;99.90;;;;;;5093702;28;20052;-66
2021/11/06 00:33:03;;;;;;;0.40;0.40;;;6.40;99.90;;;;;;5094751;28;20121;-66
2021/11/06 00:35:48;;;;;;;1.38;1.27;;;6.40;99.90;;;;;;5079452;28;20579;-67
2021/11/06 00:38:32;;;;;;;2.45;2.30;;;6.20;99.90;;;;;;5094554;28;20047;-66
2021/11/06 00:41:17;;;;;;;0.80;0.80;;;6.20;99.90;;;;;;5093975;28;20101;-66
2021/11/06 00:44:02;;;;;;;3.40;2.38;;;6.20;99.90;;;;;;5093531;28;20131;-66
2021/11/06 00:46:46;;;;;;;0.45;0.45;;;6.20;99.90;;;;;;5078851;28;20043;-66
2021/11/06 00:49:31;;;;;;;1.75;1.55;;;6.20;99.90;;;;;;5094365;28;20040;-66
2021/11/06 00:52:15;;;;;;;7.18;2.10;;;6.00;99.90;;;;;;5078882;28;20039;-67
2021/11/06 00:54:59;;;;;;;0.40;0.40;;;5.90;99.90;;;;;;5094357;28;20480;-66
2021/11/06 00:57:46;;;;;;;0.98;0.93;;;5.90;99.90;;;;;;5094194;28;20051;-66
2021/11/06 01:00:31;;;;;;;0.10;0.10;;;5.80;99.90;;;;;;5094086;28;20062;-66
2021/11/06 01:03:15;;;;;;;0.70;0.70;;;5.80;99.90;;;;;;5094273;28;20058;-66
2021/11/06 01:06:00;;;;;;;0.93;0.93;;;5.90;99.90;;;;;;5094013;28;20046;-66
2021/11/06 01:08:45;;;;;;;0.22;0.22;;;5.90;99.90;;;;;;5094051;28;20271;-66
2021/11/06 01:11:29;;;;;;;0.47;0.47;;;5.90;99.90;;;;;;5092885;28;20066;-67
2021/11/06 01:14:14;;;;;;;1.23;1.15;;;6.00;99.90;;;;;;5092809;28;20506;-66
2021/11/06 01:16:59;;;;;;;0.47;0.47;;;6.00;99.90;;;;;;5093798;28;20113;-66
2021/11/06 01:19:44;;;;;;;0.47;0.47;;;6.00;99.90;;;;;;5093488;28;20479;-67
2021/11/06 01:22:28;;;;;;;0.38;0.38;;;6.00;99.90;;;;;;5093617;28;20057;-66
2021/11/06 01:25:14;;;;;;;1.98;1.85;;;6.00;99.90;;;;;;5093540;28;20105;-66
2021/11/06 01:27:58;;;;;;;0.28;0.28;;;6.00;99.90;;;;;;5093686;28;20093;-66
2021/11/06 01:30:43;;;;;;;0.90;0.90;;;6.00;99.90;;;;;;5093593;28;20077;-66
2021/11/06 01:33:27;;;;;;;0.52;0.52;;;6.10;99.90;;;;;;5092326;28;20038;-66
2021/11/06 01:36:12;;;;;;;0.85;0.85;;;6.10;99.90;;;;;;5092424;28;20047;-66
2021/11/06 01:38:57;;;;;;;0.65;0.65;;;6.10;99.90;;;;;;5093409;28;20538;-66
2021/11/06 01:41:41;;;;;;;0.30;0.30;;;6.10;99.90;;;;;;5093481;28;20098;-66
2021/11/06 01:44:27;;;;;;;0.57;0.38;;;6.10;99.90;;;;;;5093151;28;20038;-66
2021/11/06 01:47:11;;;;;;;1.23;1.17;;;6.20;99.90;;;;;;5092901;28;20043;-67
2021/11/06 01:49:56;;;;;;;1.17;0.68;;;6.20;99.90;;;;;;5092149;28;20050;-66
2021/11/06 01:52:41;;;;;;;0.50;0.50;;;6.20;99.90;;;;;;5093021;28;20538;-66
2021/11/06 01:55:25;;;;;;;1.35;1.25;;;6.20;99.90;;;;;;5091686;28;20381;-66
2021/11/06 01:58:11;;;;;;;0.40;0.40;;;6.20;99.90;;;;;;5093095;28;20043;-67
2021/11/06 02:00:56;;;;;;;0.75;0.75;;;6.20;99.90;;;;;;5093077;28;20077;-67
2021/11/06 02:03:40;;;;;;;0.85;0.85;;;6.30;99.90;;;;;;5092039;28;20062;-67
2021/11/06 02:06:24;;;;;;;0.28;0.28;;;6.30;99.90;;;;;;5092683;28;20039;-67
2021/11/06 02:09:09;;;;;;;1.17;1.17;;;6.30;99.90;;;;;;5093240;28;20420;-66
2021/11/06 02:11:54;;;;;;;0.35;0.35;;;6.40;99.90;;;;;;5091856;28;20136;-67
2021/11/06 02:14:38;;;;;;;0.20;0.20;;;6.30;99.90;;;;;;5091609;28;20499;-67
2021/11/06 02:17:23;;;;;;;2.75;2.55;;;6.30;99.90;;;;;;5099501;28;20560;-67
2021/11/06 02:20:08;;;;;;;2.38;1.17;;;6.30;99.90;;;;;;5091346;28;20047;-67
2021/11/06 02:22:54;;;;;;;0.38;0.38;;;6.30;99.90;;;;;;5091774;28;20120;-67
2021/11/06 02:25:38;;;;;;;0.60;0.60;;;6.30;99.90;;;;;;5091572;28;20120;-67
2021/11/06 02:28:23;;;;;;;2.28;2.08;;;6.20;99.90;;;;;;5091505;28;20502;-66
2021/11/06 02:31:08;;;;;;;1.00;1.00;;;6.20;99.90;;;;;;5091728;28;20162;-67
2021/11/06 02:33:52;;;;;;;4.15;1.75;;;6.20;99.90;;;;;;5092729;28;20043;-66
2021/11/06 02:36:38;;;;;;;1.27;0.82;;;6.10;99.90;;;;;;5092595;28;20065;-66
2021/11/06 02:39:24;;;;;;;0.30;0.30;;;6.10;99.90;;;;;;5092495;28;20039;-66
2021/11/06 02:42:10;;;;;;;0.47;0.47;;;6.10;99.90;;;;;;5091555;28;20554;-66
2021/11/06 02:44:55;;;;;;;0.68;0.68;;;6.10;99.90;;;;;;5092570;28;20089;-66
2021/11/06 02:47:39;;;;;;;0.35;0.35;;;6.00;99.90;;;;;;5092130;28;20177;-66
2021/11/06 02:50:24;;;;;;;0.38;0.38;;;6.00;99.90;;;;;;5092404;28;20445;-66
2021/11/06 02:53:09;;;;;;;0.30;0.30;;;6.00;99.90;;;;;;5092795;28;20438;-66
2021/11/06 02:55:53;;;;;;;0.85;0.85;;;5.90;99.90;;;;;;5092417;28;20404;-66
2021/11/06 02:58:37;;;;;;;1.65;1.55;;;5.90;99.90;;;;;;5092261;28;20758;-66
2021/11/06 03:01:22;;;;;;;0.55;0.55;;;5.90;99.90;;;;;;5091989;28;20035;-66
2021/11/06 03:04:12;;;;;;;0.22;0.22;;;5.90;99.90;;;;;;5092637;28;20131;-66
2021/11/06 03:06:56;;;;;;;0.55;0.55;;;5.90;99.90;;;;;;5096564;28;20035;-66
2021/11/06 03:09:41;;;;;;;0.32;0.32;;;5.80;99.90;;;;;;5096207;28;20035;-66
2021/11/06 03:12:27;;;;;;;3.53;0.45;;;5.80;99.90;;;;;;5095465;28;20556;-66
2021/11/06 03:15:12;;;;;;;0.20;0.20;;;5.80;99.90;;;;;;5095233;28;20043;-66
2021/11/06 03:17:56;;;;;;;0.30;0.30;;;5.80;99.90;;;;;;5096198;28;20389;-66
2021/11/06 03:20:41;;;;;;;0.10;0.10;;;5.70;99.90;;;;;;5095672;28;20105;-66
2021/11/06 03:23:27;;;;;;;0.35;0.35;;;5.70;99.90;;;;;;5095925;28;20047;-66
2021/11/06 03:26:12;;;;;;;0.40;0.40;;;5.70;99.90;;;;;;5096256;28;20047;-66
2021/11/06 03:28:56;;;;;;;2.55;1.45;;;5.60;99.90;;;;;;5080630;28;20185;-66
2021/11/06 03:31:41;;;;;;;0.30;0.30;;;5.50;99.90;;;;;;5096155;28;20043;-66
2021/11/06 03:34:25;;;;;;;0.17;0.17;;;5.50;99.90;;;;;;5095674;28;20047;-66
2021/11/06 03:37:09;;;;;;;0.40;0.40;;;5.50;99.90;;;;;;5095808;28;20031;-66
2021/11/06 03:39:54;;;;;;;1.50;1.40;;;5.40;99.90;;;;;;5094730;28;20077;-66
2021/11/06 03:42:40;;;;;;;0.20;0.20;;;5.40;99.90;;;;;;5095601;28;20043;-66
2021/11/06 03:45:24;;;;;;;0.65;0.65;;;5.40;99.90;;;;;;5095458;28;20039;-66
2021/11/06 03:48:09;;;;;;;0.70;0.70;;;5.30;99.90;;;;;;5095624;28;20441;-66
2021/11/06 03:50:54;;;;;;;4.45;2.05;;;5.30;99.90;;;;;;5094497;28;20035;-66
2021/11/06 03:53:39;;;;;;;0.52;0.52;;;5.20;99.90;;;;;;5095447;28;20088;-66
2021/11/06 03:56:24;;;;;;;0.47;0.47;;;5.20;99.90;;;;;;5094311;28;20038;-66
2021/11/06 03:59:10;;;;;;;0.75;0.75;;;5.10;99.90;;;;;;5094345;28;20043;-66
2021/11/06 04:01:54;;;;;;;2.40;1.98;;;5.10;99.90;;;;;;5094381;28;20030;-66
2021/11/06 04:04:39;;;;;;;0.98;0.98;;;5.10;99.90;;;;;;5094998;28;20104;-66
2021/11/06 04:07:23;;;;;;;1.92;0.98;;;5.10;99.90;;;;;;5094881;28;20078;-66
2021/11/06 04:10:09;;;;;;;0.10;0.10;;;5.00;99.90;;;;;;5094952;28;20043;-66
2021/11/06 04:12:53;;;;;;;0.57;0.57;;;5.00;99.90;;;;;;5094178;28;20043;-66
2021/11/06 04:15:38;;;;;;;6.72;1.25;;;4.90;99.90;;;;;;5093598;28;20043;-66
2021/11/06 04:18:23;;;;;;;1.10;1.05;;;5.00;99.90;;;;;;5094492;28;20636;-66
2021/11/06 04:21:07;;;;;;;0.80;0.80;;;4.90;99.90;;;;;;5094547;28;20108;-66
2021/11/06 04:23:52;;;;;;;3.70;2.38;;;4.90;99.90;;;;;;5094993;28;20552;-66
2021/11/06 04:26:36;;;;;;;3.20;1.48;;;4.80;99.90;;;;;;5094688;28;20039;-66
2021/11/06 04:29:21;;;;;;;0.30;0.30;;;4.80;99.90;;;;;;5094839;28;20046;-66
2021/11/06 04:32:06;;;;;;;0.20;0.20;;;4.80;99.90;;;;;;5095155;28;20077;-66
2021/11/06 04:34:51;;;;;;;0.40;0.40;;;4.80;99.90;;;;;;5094720;28;20039;-66
2021/11/06 04:37:36;;;;;;;0.75;0.75;;;4.80;99.90;;;;;;5093505;28;20086;-66
2021/11/06 04:40:20;;;;;;;0.40;0.40;;;4.80;99.90;;;;;;5094625;28;20043;-66
2021/11/06 04:43:05;;;;;;;0.25;0.25;;;4.70;99.90;;;;;;5094659;28;20561;-66
2021/11/06 04:45:49;;;;;;;0.22;0.22;;;4.70;99.90;;;;;;5094211;28;20408;-66
2021/11/06 04:48:34;;;;;;;5.40;2.63;;;4.70;99.90;;;;;;5094433;28;20078;-66
2021/11/06 04:51:19;;;;;;;1.45;0.65;;;4.70;99.90;;;;;;5094344;28;20511;-66
2021/11/06 04:54:03;;;;;;;2.20;1.17;;;4.70;99.90;;;;;;5093364;28;20039;-66
2021/11/06 04:56:50;;;;;;;2.28;0.85;;;4.80;99.90;;;;;;5093007;28;20035;-66
2021/11/06 04:59:34;;;;;;;0.10;0.10;;;4.80;99.90;;;;;;5094097;28;20077;-66
2021/11/06 05:02:18;;;;;;;1.17;1.15;;;4.80;99.90;;;;;;5093169;28;20070;-66
2021/11/06 05:05:03;;;;;;;0.90;0.90;;;4.80;99.90;;;;;;5093136;28;20497;-65
2021/11/06 05:07:48;;;;;;;1.42;1.33;;;4.80;99.90;;;;;;5093710;28;20165;-66
2021/11/06 05:10:33;;;;;;;0.70;0.57;;;4.80;99.90;;;;;;5093810;28;20786;-65
2021/11/06 05:13:18;;;;;;;0.68;0.68;;;4.70;99.90;;;;;;5093773;28;20384;-65
2021/11/06 05:16:03;;;;;;;0.28;0.28;;;4.60;99.90;;;;;;5092754;28;20097;-65
2021/11/06 05:18:47;;;;;;;0.95;0.95;;;4.60;99.90;;;;;;5093646;28;20043;-65
2021/11/06 05:21:36;;;;;;;0.35;0.35;;;4.60;99.90;;;;;;5092210;28;20047;-66
2021/11/06 05:24:21;;;;;;;1.38;1.10;;;4.60;99.90;;;;;;5079271;28;20039;-66
2021/11/06 05:27:06;;;;;;;1.63;0.85;;;4.60;99.90;;;;;;5092430;28;20401;-65
2021/11/06 05:29:50;;;;;;;0.98;0.98;;;4.50;99.90;;;;;;5091598;28;20051;-65
2021/11/06 05:32:37;;;;;;;0.73;0.73;;;4.50;99.90;;;;;;5092375;28;20066;-65
2021/11/06 05:35:21;;;;;;;1.02;0.80;;;4.50;99.90;;;;;;5093529;28;20082;-66
2021/11/06 05:38:06;;;;;;;0.05;0.05;;;4.50;99.90;;;;;;5093601;28;20085;-66
2021/11/06 05:40:51;;;;;;;0.57;0.57;;;4.50;99.90;;;;;;5092188;28;20039;-65
2021/11/06 05:43:36;;;;;;;0.55;0.55;;;4.40;99.90;;;;;;5093216;28;20032;-66
2021/11/06 05:46:20;;;;;;;1.10;1.10;;;4.40;99.90;;;;;;5093086;28;20083;-67
2021/11/06 05:49:05;;;;;;;0.38;0.38;;;4.30;99.90;;;;;;5092311;28;20515;-65
2021/11/06 05:51:49;;;;;;;0.73;0.73;;;4.20;99.90;;;;;;5091552;28;20089;-65
2021/11/06 05:54:34;;;;;;;2.25;2.05;;;4.20;99.90;;;;;;5090742;28;20097;-66
2021/11/06 05:57:19;;;;;;;0.45;0.45;;;4.10;99.90;;;;;;5092586;28;20035;-66
2021/11/06 06:00:11;;;;;;;1.85;0.68;;;4.10;99.90;;;;;;5093098;28;20389;-66
2021/11/06 06:02:56;;;;;;;0.30;0.30;;;4.00;99.90;;;;;;5092065;28;20051;-66
2021/11/06 06:05:41;;;;;;;1.00;1.00;;;3.80;99.90;;;;;;5092993;28;20057;-65
2021/11/06 06:08:26;;;;;;;0.25;0.25;;;3.80;99.90;;;;;;5093054;28;20387;-66
2021/11/06 06:11:11;;;;;;;0.10;0.10;;;3.80;99.90;;;;;;5092000;28;20388;-67
2021/11/06 06:13:56;;;;;;;0.30;0.30;;;3.80;99.90;;;;;;5093114;28;20075;-66
2021/11/06 06:16:40;;;;;;;0.32;0.32;;;3.70;99.90;;;;;;5091814;28;20530;-66
2021/11/06 06:19:25;;;;;;;0.15;0.15;;;3.70;99.90;;;;;;5092791;28;20046;-67
2021/11/06 06:22:10;;;;;;;0.20;0.20;;;3.80;99.90;;;;;;5092801;28;20573;-68
2021/11/06 06:24:54;;;;;;;0.52;0.52;;;3.80;99.90;;;;;;5091669;28;20078;-68
2021/11/06 06:27:40;;;;;;;0.85;0.85;;;3.70;99.90;;;;;;5091314;28;20065;-67
2021/11/06 06:30:24;;;;;;;0.50;0.50;;;3.70;99.90;;;;;;5092613;28;20070;-67
2021/11/06 06:33:08;;;;;;;0.10;0.10;;;3.80;99.90;;;;;;5092452;28;20035;-67
2021/11/06 06:35:53;;;;;;;0.17;0.17;;;3.80;99.90;;;;;;5091400;28;20081;-67
2021/11/06 06:38:38;;;;;;;0.25;0.25;;;3.80;99.90;;;;;;5091436;28;20042;-67
2021/11/06 06:41:23;;;;;;;0.73;0.73;;;3.90;99.90;;;;;;5092200;28;20644;-68
2021/11/06 06:44:07;;;;;;;0.05;0.05;;;3.90;99.90;;;;;;5092868;28;20074;-68
2021/11/06 06:46:52;;;;;;;0.68;0.68;;;3.90;99.90;;;;;;5092123;28;20043;-68
2021/11/06 06:49:36;;;;;;;0.22;0.22;;;4.00;99.90;;;;;;5092719;28;20097;-66
2021/11/06 06:52:20;;;;;;;0.40;0.40;;;4.00;99.90;;;;;;5092484;28;20495;-67
2021/11/06 06:55:07;;;;;;;0.15;0.15;;;4.00;99.90;;;;;;5091218;28;20061;-67
2021/11/06 06:57:52;;;;;;;1.17;1.08;;;4.10;99.90;;;;;;5091984;28;20083;-67
2021/11/06 07:00:36;;;;;;;1.25;1.17;;;4.10;99.90;;;;;;5092362;28;20042;-67
2021/11/06 07:03:20;;;;;;;1.45;1.23;;;4.10;99.90;;;;;;5092409;28;20070;-67
2021/11/06 07:06:05;;;;;;;28.80;2.25;;;4.20;99.90;;;;;;5092335;28;20535;-67
2021/11/06 07:08:49;;;;;;;0.20;0.20;;;4.20;99.90;;;;;;5092129;28;20085;-67
2021/11/06 07:11:34;;;;;;;0.80;0.80;;;4.30;99.90;;;;;;5092356;28;20035;-66
2021/11/06 07:14:21;;;;;;;1.40;0.60;;;4.40;99.90;;;;;;5092254;28;20104;-66
2021/11/06 07:17:05;;;;;;;0.20;0.20;;;4.40;99.90;;;;;;5091181;28;20050;-67
2021/11/06 07:19:49;;;;;;;0.88;0.82;;;4.50;99.90;;;;;;5090850;28;20070;-67
2021/11/06 07:22:35;;;;;;;3.40;3.10;;;4.50;99.90;;;;;;5092210;28;20079;-67
2021/11/06 07:25:20;;;;;;;0.00;0.00;;;4.50;99.90;;;;;;5077189;28;20039;-67
2021/11/06 07:28:05;;;;;;;0.20;0.20;;;4.60;99.90;;;;;;5091889;28;20090;-67
2021/11/06 07:30:49;;;;;;;0.10;0.10;;;4.60;99.90;;;;;;5090999;28;20047;-67
2021/11/06 07:33:33;;;;;;;0.38;0.38;;;4.70;99.90;;;;;;5090833;28;20431;-67
2021/11/06 07:36:18;;;;;;;5.45;3.85;;;4.70;99.90;;;;;;5090999;28;20047;-67
2021/11/06 07:39:03;;;;;;;0.05;0.05;;;4.70;99.90;;;;;;5091273;28;20043;-67
2021/11/06 07:41:48;;;;;;;0.77;0.77;;;4.80;99.90;;;;;;5091777;28;20096;-67
2021/11/06 07:44:32;;;;;;;0.10;0.10;;;4.90;99.90;;;;;;5092364;28;20207;-67
2021/11/06 07:47:17;;;;;;;0.25;0.17;;;5.00;99.90;;;;;;5091679;28;20093;-68
2021/11/06 07:50:03;;;;;;;0.38;0.38;;;5.00;99.90;;;;;;5091622;28;20115;-67
2021/11/06 07:52:48;;;;;;;0.80;0.80;;;5.00;99.90;;;;;;5093018;28;20035;-67
2021/11/06 07:55:32;;;;;;;1.23;1.15;;;5.10;99.90;;;;;;5095504;28;20432;-67
2021/11/06 07:58:17;;;;;;;0.35;0.35;;;5.10;99.90;;;;;;5094425;28;20044;-67
2021/11/06 08:01:02;;;;;;;2.28;2.03;;;5.10;99.90;;;;;;5095320;28;20055;-68
2021/11/06 08:03:47;;;;;;;0.20;0.20;;;5.10;99.90;;;;;;5094934;28;20093;-68
2021/11/06 08:06:31;;;;;;;0.05;0.05;;;5.00;99.90;;;;;;5095240;28;20051;-69
2021/11/06 08:09:16;;;;;;;9.60;4.30;;;5.00;99.90;;;;;;5095116;28;20042;-67
2021/11/06 08:12:00;;;;;;;7.22;1.70;;;5.00;99.90;;;;;;5094124;28;20560;-66
2021/11/06 08:14:45;;;;;;;0.63;0.63;;;5.00;99.90;;;;;;5094903;28;20077;-67
2021/11/06 08:17:29;;;;;;;0.85;0.43;;;5.00;99.90;;;;;;5101865;28;20089;-68
2021/11/06 08:20:14;;;;;;;2.88;1.52;;;5.00;99.90;;;;;;5095056;28;20082;-67
2021/11/06 08:22:59;;;;;;;0.10;0.10;;;5.00;99.90;;;;;;5094504;28;20085;-66
2021/11/06 08:25:45;;;;;;;4.40;1.70;;;5.00;99.90;;;;;;5094765;28;20034;-67
2021/11/06 08:28:29;;;;;;;0.38;0.38;;;5.10;99.90;;;;;;5093800;28;20521;-67
2021/11/06 08:31:13;;;;;;;0.30;0.30;;;5.00;99.90;;;;;;5094828;28;20093;-66
2021/11/06 08:33:58;;;;;;;0.17;0.17;;;5.10;99.90;;;;;;5094583;28;20074;-66
2021/11/06 08:36:42;;;;;;;0.30;0.30;;;5.10;99.90;;;;;;5094569;28;20047;-66
2021/11/06 08:39:27;;;;;;;5.07;2.55;;;5.20;99.90;;;;;;5094542;28;20058;-66
2021/11/06 08:42:13;;;;;;;0.30;0.17;;;5.20;99.90;;;;;;5094651;28;20114;-66
2021/11/06 08:44:57;;;;;;;1.55;1.05;;;5.20;99.90;;;;;;5093243;28;20046;-66
2021/11/06 08:47:43;;;;;;;1.25;1.23;;;5.20;99.90;;;;;;5094229;28;20498;-67
2021/11/06 08:50:28;;;;;;;0.47;0.47;;;5.20;99.90;;;;;;5094419;28;20093;-66
2021/11/06 08:53:13;;;;;;;0.80;0.80;;;5.30;99.90;;;;;;5094260;28;20065;-66
2021/11/06 08:55:57;;;;;;;3.90;3.58;;;5.30;99.90;;;;;;5094086;28;20039;-66
2021/11/06 08:58:42;;;;;;;0.20;0.20;;;5.30;99.90;;;;;;5093976;28;20077;-66
2021/11/06 09:01:26;;;;;;;0.15;0.15;;;5.30;99.90;;;;;;5093208;28;20397;-66
2021/11/06 09:04:12;;;;;;;1.27;1.17;;;5.40;99.90;;;;;;5093796;28;20107;-66
2021/11/06 09:06:57;;;;;;;0.10;0.10;;;5.40;99.90;;;;;;5093667;28;20039;-66
2021/11/06 09:09:43;;;;;;;0.10;0.10;;;5.40;99.90;;;;;;5094197;28;20085;-67
2021/11/06 09:12:29;;;;;;;0.20;0.20;;;5.50;99.90;;;;;;5093971;28;20047;-67
2021/11/06 09:15:13;;;;;;;2.65;2.53;;;5.50;99.90;;;;;;5093785;28;20047;-66
2021/11/06 09:17:58;;;;;;;2.60;2.40;;;5.60;99.90;;;;;;5092633;28;20089;-66
2021/11/06 09:20:43;;;;;;;0.95;0.95;;;5.70;99.90;;;;;;5092454;28;20417;-66
2021/11/06 09:23:32;;;;;;;0.20;0.20;;;5.70;99.90;;;;;;5092645;28;20129;-67
2021/11/06 09:26:20;;;;;;;0.68;0.68;;;5.70;99.90;;;;;;5078385;28;20043;-67
2021/11/06 09:29:07;;;;;;;1.13;1.08;;;5.70;99.90;;;;;;5093416;28;20047;-67
2021/11/06 09:31:51;;;;;;;3.50;3.03;;;5.80;99.90;;;;;;5092479;28;20046;-67
2021/11/06 09:34:38;;;;;;;3.00;1.60;;;5.90;99.90;;;;;;5093550;28;20087;-67
2021/11/06 09:37:22;;;;;;;2.30;1.45;;;5.90;99.90;;;;;;5093560;28;20043;-67
2021/11/06 09:40:09;;;;;;;0.40;0.40;;;6.00;99.90;;;;;;5092941;28;20091;-67
2021/11/06 09:42:54;;;;;;;0.28;0.28;;;6.10;99.90;;;;;;5083098;28;20512;-67
2021/11/06 09:45:38;;;;;;;1.27;1.23;;;6.10;99.90;;;;;;5078646;28;20039;-68
2021/11/06 09:48:25;;;;;;;0.75;0.75;;;6.00;99.90;;;;;;5087336;28;20120;-66
2021/11/06 09:51:11;;;;;;;0.80;0.80;;;6.00;99.90;;;;;;5091817;28;20039;-68
2021/11/06 09:53:55;;;;;;;0.30;0.30;;;6.10;99.90;;;;;;5092998;28;20447;-68
2021/11/06 09:56:40;;;;;;;0.30;0.30;;;6.10;99.90;;;;;;5093076;28;20124;-68
2021/11/06 09:59:26;;;;;;;0.88;0.88;;;6.10;99.90;;;;;;5093122;28;20380;-68
2021/11/06 10:02:11;;;;;;;1.58;1.15;;;6.20;99.90;;;;;;5093268;28;20396;-68
2021/11/06 10:04:56;;;;;;;0.60;0.60;;;6.20;99.90;;;;;;5091883;28;20039;-67
2021/11/06 10:07:42;;;;;;;0.65;0.65;;;6.30;99.90;;;;;;5091816;28;20038;-68
2021/11/06 10:10:35;;;;;;;2.58;0.82;;;6.40;99.90;;;;;;5092802;28;20085;-67
2021/11/06 10:13:21;;;;;;;2.75;2.00;;;6.40;99.90;;;;;;5091820;28;20401;-68
2021/11/06 10:16:06;;;;;;;4.90;0.98;;;6.40;99.90;;;;;;5092260;28;20123;-68
2021/11/06 10:19:08;;;;;;;3.40;2.03;;;6.50;99.90;;;;;;5092786;28;20361;-68
2021/11/06 10:22:14;;;;;;;0.65;0.65;;;6.60;99.90;;;;;;5092273;28;20063;-67
2021/11/06 10:24:59;;;;;;;0.43;0.43;;;6.70;99.90;;;;;;5092592;28;20043;-67
2021/11/06 10:27:57;;;;;;;0.35;0.35;;;6.70;99.90;;;;;;5077078;28;20042;-68
2021/11/06 10:30:44;;;;;;;8.27;2.58;;;6.60;99.90;;;;;;5092910;28;20034;-68
2021/11/06 10:33:29;;;;;;;8.07;4.15;;;6.60;99.90;;;;;;5092781;28;20116;-68
2021/11/06 10:36:26;;;;;;;1.73;1.48;;;6.60;99.90;;;;;;5092621;28;20035;-66
2021/11/06 10:39:11;;;;;;;1.25;1.15;;;6.70;99.90;;;;;;5091706;28;20104;-69
2021/11/06 10:42:14;;;;;;;0.63;0.63;;;6.80;99.90;;;;;;5092264;28;20038;-69
2021/11/06 10:45:14;;;;;;;11.30;3.42;;;6.90;99.90;;;;;;5093548;28;20151;-68
2021/11/06 10:48:09;;;;;;;1.65;1.55;;;7.00;99.90;;;;;;5092211;28;20117;-67
2021/11/06 10:51:11;;;;;;;5.05;3.42;;;6.90;99.90;;;;;;5092636;28;20039;-68
2021/11/06 10:54:04;;;;;;;1.60;1.50;;;7.00;99.90;;;;;;5093677;28;20039;-68
2021/11/06 10:56:55;;;;;;;0.52;0.52;;;6.90;99.90;;;;;;5092149;28;20062;-70
2021/11/06 10:59:39;;;;;;;;;;;7.10;99.90;;;;;;5092916;28;20415;-66
2021/11/06 11:02:23;;;;;;;3.30;2.10;;;7.00;99.90;;;;;;5100531;28;20021;-68
2021/11/06 11:05:30;;;;;;;1.08;0.98;;;6.90;99.90;;;;;;5091208;28;20392;-67
2021/11/06 11:08:15;;;;;;;13.18;2.05;;;7.00;99.90;;;;;;5091981;28;20581;-68
2021/11/06 11:11:07;;;;;;;0.52;0.52;;;7.10;99.90;;;;;;5092081;28;20038;-66
2021/11/06 11:13:54;;;;;;;1.23;1.17;;;7.20;99.90;;;;;;5091906;28;20081;-65
2021/11/06 11:16:54;;;;;;;0.93;0.93;;;7.20;99.90;;;;;;5097940;28;20094;-65
2021/11/06 11:19:47;;;;;;;1.17;1.08;;;7.20;99.90;;;;;;5092306;28;20507;-65
2021/11/06 11:22:32;;;;;;;0.08;0.08;;;7.20;99.90;;;;;;5092226;28;20097;-65
2021/11/06 11:25:17;;;;;;;0.30;0.30;;;7.10;99.90;;;;;;5091143;28;20051;-64
2021/11/06 11:28:01;;;;;;;2.05;1.95;;;7.10;99.90;;;;;;5094562;28;20097;-65
2021/11/06 11:30:46;;;;;;;0.65;0.65;;;7.20;99.90;;;;;;5094921;28;20035;-65
2021/11/06 11:33:30;;;;;;;1.05;0.95;;;7.30;99.90;;;;;;5094688;28;20079;-64
2021/11/06 11:36:19;;;;;;;1.40;1.35;;;7.30;99.90;;;;;;5094542;28;20510;-65
2021/11/06 11:39:10;;;;;;;2.15;2.00;;;7.40;99.90;;;;;;5094685;28;20089;-65
2021/11/06 11:42:16;;;;;;;0.70;0.70;;;7.60;99.90;;;;;;5092685;28;20078;-64
2021/11/06 11:45:39;;;;;;;0.82;0.82;;;7.70;99.90;;;;;;5078113;28;20107;-66
2021/11/06 11:48:27;;;;;;;0.10;0.10;;;7.90;99.90;;;;;;5081769;28;20103;-65
2021/11/06 11:51:12;;;;;;;0.30;0.30;;;7.80;99.90;;;;;;5074163;28;20523;-68
2021/11/06 11:54:06;;;;;;;0.35;0.35;;;7.60;99.90;;;;;;5075017;28;20038;-64
2021/11/06 11:57:12;;;;;;;0.82;0.77;;;7.80;99.90;;;;;;5074869;28;20576;-63
2021/11/06 11:59:57;;;;;;;0.60;0.60;;;7.80;99.90;;;;;;5093937;28;20039;-63
2021/11/06 12:02:59;;;;;;;17.20;2.63;;;7.60;99.90;;;;;;5095285;28;20582;-64
2021/11/06 12:05:45;;;;;;;0.10;0.10;;;7.60;99.90;;;;;;5094947;28;20094;-63
2021/11/06 12:08:32;;;;;;;2.38;1.40;;;7.30;99.90;;;;;;5095287;28;20042;-63
2021/11/06 12:11:24;;;;;;;4.88;3.95;;;7.10;99.90;;;;;;5093955;28;20105;-63
2021/11/06 12:14:34;;;;;;;19.58;1.63;;;7.10;99.90;;;;;;5087542;28;20048;-64
2021/11/06 12:17:33;;;;;;;3.50;2.28;;;7.30;99.90;;;;;;5090683;28;20042;-65
2021/11/06 12:20:26;;;;;;;1.50;1.40;;;7.30;99.90;;;;;;5093483;28;20484;-64
2021/11/06 12:23:31;;;;;;;1.38;1.25;;;7.20;99.90;;;;;;5094888;28;20090;-64
2021/11/06 12:26:19;;;;;;;0.35;0.35;;;7.30;99.90;;;;;;5089045;28;20046;-64
2021/11/06 12:29:06;;;;;;;2.08;0.70;;;7.40;99.90;;;;;;5074377;28;20101;-65
2021/11/06 12:31:56;;;;;;;1.70;1.60;;;7.40;99.90;;;;;;5074136;28;20075;-65
2021/11/06 12:34:46;;;;;;;1.95;1.30;;;7.40;99.90;;;;;;5073555;28;20038;-65
2021/11/06 12:37:36;;;;;;;1.20;1.17;;;7.30;99.90;;;;;;5074096;28;20102;-64
2021/11/06 12:40:33;;;;;;;0.87;0.87;;;7.40;99.90;;;;;;5074558;28;20388;-65
2021/11/06 12:43:29;;;;;;;0.88;0.88;;;7.40;99.90;;;;;;5074101;28;20044;-64
2021/11/06 12:46:27;;;;;;;2.08;1.85;;;7.40;99.90;;;;;;5072969;28;20460;-64
2021/11/06 12:49:11;;;;;;;0.57;0.57;;;7.30;99.90;;;;;;5074241;28;20447;-66
2021/11/06 12:51:56;;;;;;;2.75;1.48;;;7.20;99.90;;;;;;5074000;28;20396;-65
2021/11/06 12:54:41;;;;;;;0.93;0.93;;;7.00;99.90;;;;;;5074493;28;20055;-64
2021/11/06 12:57:41;;;;;;;1.48;1.38;;;7.10;99.90;;;;;;5072965;28;20558;-64
2021/11/06 13:00:31;;;;;;;0.98;0.98;;;7.30;99.90;;;;;;5073995;28;20039;-70
2021/11/06 13:03:18;;;;;;;3.03;2.03;;;7.50;99.90;;;;;;5072982;28;20074;-69
2021/11/06 13:06:25;;;;;;;2.35;1.95;;;7.90;99.90;;;;;;5072600;28;20621;-67
2021/11/06 13:09:11;;;;;;;0.90;0.90;;;8.00;99.90;;;;;;5072566;28;20035;-68
2021/11/06 13:11:57;;;;;;;2.95;0.93;;;8.50;99.90;;;;;;5073691;28;20451;-68
2021/11/06 13:14:45;;;;;;;0.82;0.80;;;9.20;99.90;;;;;;5072707;28;20117;-67
2021/11/06 13:17:36;;;;;;;7.32;2.00;;;9.20;99.90;;;;;;5079785;28;20043;-59
2021/11/06 13:20:22;;;;;;;0.33;0.33;;;9.60;99.90;;;;;;5073159;28;20051;-66
2021/11/06 13:23:07;;;;;;;0.57;0.57;;;10.10;99.90;;;;;;5072020;28;20294;-67
2021/11/06 13:25:51;;;;;;;0.73;0.73;;;10.20;99.90;;;;;;5072379;28;20048;-66
2021/11/06 13:28:36;;;;;;;0.77;0.77;;;9.80;99.90;;;;;;5073215;28;20078;-66
2021/11/06 13:31:20;;;;;;;1.83;1.67;;;10.00;99.90;;;;;;5073098;28;20038;-65
2021/11/06 13:34:04;;;;;;;1.48;1.35;;;10.30;99.90;;;;;;5073199;28;20062;-69
2021/11/06 13:36:49;;;;;;;1.15;0.75;;;10.90;99.90;;;;;;5071775;28;20090;-69
2021/11/06 13:39:36;;;;;;;0.40;0.40;;;10.60;99.90;;;;;;5089323;28;20070;-71
2021/11/06 13:42:25;;;;;;;3.40;2.08;;;10.70;99.90;;;;;;5093350;28;20043;-71
2021/11/06 13:45:11;;;;;;;0.98;0.93;;;10.70;99.90;;;;;;5093144;28;20061;-70
2021/11/06 13:47:55;;;;;;;2.78;2.50;;;11.00;99.90;;;;;;5091943;28;20043;-72
2021/11/06 13:50:40;;;;;;;2.38;2.17;;;11.00;99.90;;;;;;5091507;28;20054;-69
2021/11/06 13:53:26;;;;;;;3.42;1.58;;;11.30;99.90;;;;;;5092108;28;20070;-69
2021/11/06 13:56:11;;;;;;;1.02;0.93;;;11.70;99.90;;;;;;5092118;28;20039;-68
2021/11/06 13:58:59;;;;;;;1.73;1.55;;;11.10;99.90;;;;;;5091950;28;20038;-67
2021/11/06 14:01:50;;;;;;;2.47;1.25;;;11.30;99.90;;;;;;5077797;28;20505;-68
2021/11/06 14:04:47;;;;;;;2.17;1.17;;;11.40;99.90;;;;;;5091704;28;20050;-68
2021/11/06 14:07:40;;;;;;;1.65;1.33;;;11.50;99.90;;;;;;5085740;28;20042;-66
2021/11/06 14:10:32;;;;;;;0.68;0.68;;;11.50;99.90;;;;;;5071474;28;20075;-68
2021/11/06 14:13:17;;;;;;;4.22;1.15;;;11.10;99.90;;;;;;5057397;28;20047;-68
2021/11/06 14:16:15;;;;;;;3.10;1.30;;;10.70;99.90;;;;;;5072496;28;20036;-68
2021/11/06 14:19:07;;;;;;;1.10;1.05;;;10.30;99.90;;;;;;5071029;28;20521;-68
2021/11/06 14:22:03;;;;;;;0.10;0.10;;;9.90;99.90;;;;;;5071295;28;20101;-68
2021/11/06 14:24:49;;;;;;;2.50;1.75;;;9.80;99.90;;;;;;5071164;28;20086;-69
2021/11/06 14:27:33;;;;;;;1.50;1.10;;;9.70;99.90;;;;;;5071516;28;20043;-68
2021/11/06 14:30:18;;;;;;;2.67;1.42;;;9.60;99.90;;;;;;5056724;28;20123;-68
2021/11/06 14:33:05;;;;;;;0.17;0.17;;;9.60;99.90;;;;;;5071725;28;20472;-68
2021/11/06 14:35:50;;;;;;;0.05;0.05;;;9.80;99.90;;;;;;5071142;28;20073;-68